Time;durP1;ratioP1;P1;durP2;ratioP2;P2;SDS_P1;SDS_P2;PMS_P1;PMS_P2;Temp;Humidity;BMP_temperature;BMP_pressure;BME280_temperature;BME280_humidity;BME280_pressure;Samples;Min_cycle;Max_cycle;Signal;HPM_P1;HPM_P2
2021/07/06 00:01:32;;;;;;;4.63;2.75;;;;;;;;;;5038991;28;20033;-74
2021/07/06 00:03:58;;;;;;;3.17;2.58;;;;;;;;;;5042116;28;20033;-74
2021/07/06 00:06:23;;;;;;;4.40;2.78;;;;;;;;;;5037908;28;20074;-73
2021/07/06 00:08:48;;;;;;;27.42;3.60;;;;;;;;;;5037634;28;20026;-72
2021/07/06 00:11:14;;;;;;;4.68;2.45;;;;;;;;;;5041873;28;20052;-74
2021/07/06 00:13:39;;;;;;;8.23;2.88;;;;;;;;;;5057742;28;20017;-74
2021/07/06 00:16:04;;;;;;;8.85;2.80;;;;;;;;;;5054277;28;20025;-74
2021/07/06 00:18:30;;;;;;;9.95;3.47;;;;;;;;;;5042134;28;20036;-72
2021/07/06 00:20:56;;;;;;;5.20;2.70;;;;;;;;;;5058275;28;20032;-74
2021/07/06 00:23:21;;;;;;;7.95;2.38;;;;;;;;;;5058748;28;20477;-74
2021/07/06 00:25:46;;;;;;;20.70;3.28;;;;;;;;;;5049001;28;20474;-73
2021/07/06 00:28:12;;;;;;;5.88;2.17;;;;;;;;;;5036824;28;20061;-75
2021/07/06 00:30:38;;;;;;;5.00;2.20;;;;;;;;;;5038884;28;20025;-74
2021/07/06 00:33:03;;;;;;;2.35;1.98;;;;;;;;;;5054528;28;20105;-73
2021/07/06 00:35:29;;;;;;;2.95;2.20;;;;;;;;;;5045546;28;20071;-74
2021/07/06 00:37:54;;;;;;;2.97;2.33;;;;;;;;;;5057024;28;20500;-73
2021/07/06 00:40:20;;;;;;;2.85;2.30;;;;;;;;;;5046012;28;20104;-73
2021/07/06 00:42:47;;;;;;;5.30;2.20;;;;;;;;;;5036850;28;20474;-73
2021/07/06 00:45:14;;;;;;;2.92;2.20;;;;;;;;;;5037374;28;20053;-74
2021/07/06 00:47:41;;;;;;;4.25;2.20;;;;;;;;;;5034668;28;20033;-73
2021/07/06 00:50:19;;;;;;;2.20;1.95;;;;;;;;;;5036442;28;20022;-73
2021/07/06 00:52:44;;;;;;;6.68;2.05;;;;;;;;;;5037564;28;20084;-74
2021/07/06 00:55:11;;;;;;;2.25;1.95;;;;;;;;;;5037076;28;20025;-73
2021/07/06 00:57:37;;;;;;;3.92;2.03;;;;;;;;;;5042903;28;20025;-73
2021/07/06 01:00:08;;;;;;;4.15;2.03;;;;;;;;;;5037197;28;20032;-75
2021/07/06 01:02:33;;;;;;;4.65;2.00;;;;;;;;;;5037035;28;22031;-75
2021/07/06 01:04:59;;;;;;;6.38;1.98;;;;;;;;;;5038025;28;20026;-74
2021/07/06 01:07:24;;;;;;;4.07;1.83;;;;;;;;;;5037593;28;20509;-73
2021/07/06 01:09:49;;;;;;;3.80;1.90;;;;;;;;;;5056322;28;20056;-74
2021/07/06 01:12:15;;;;;;;2.72;2.20;;;;;;;;;;5057224;28;20389;-75
2021/07/06 01:14:41;;;;;;;9.40;1.88;;;;;;;;;;5057881;28;20119;-72
2021/07/06 01:17:08;;;;;;;1.75;1.45;;;;;;;;;;5042960;28;20064;-74
2021/07/06 01:19:35;;;;;;;4.45;1.73;;;;;;;;;;5037884;28;20029;-74
2021/07/06 01:22:05;;;;;;;2.13;1.50;;;;;;;;;;5056433;28;20052;-74
2021/07/06 01:24:31;;;;;;;1.90;1.33;;;;;;;;;;5054428;28;20057;-73
2021/07/06 01:26:57;;;;;;;4.90;1.80;;;;;;;;;;5043605;28;20036;-73
2021/07/06 01:29:22;;;;;;;5.10;2.00;;;;;;;;;;5039924;28;20061;-74
2021/07/06 01:31:51;;;;;;;1.92;1.55;;;;;;;;;;5058515;28;20033;-73
2021/07/06 01:34:17;;;;;;;2.03;1.27;;;;;;;;;;5059278;28;20021;-73
2021/07/06 01:36:44;;;;;;;3.08;1.35;;;;;;;;;;5059145;28;20526;-75
2021/07/06 01:39:10;;;;;;;4.97;1.42;;;;;;;;;;5052313;28;20386;-75
2021/07/06 01:41:42;;;;;;;3.40;1.33;;;;;;;;;;5036651;28;20033;-73
2021/07/06 01:44:26;;;;;;;;;;;;;;;;;;5045630;28;20075;-72
2021/07/06 01:46:52;;;;;;;1.67;1.50;;;;;;;;;;5048084;28;19983;-73
2021/07/06 01:49:18;;;;;;;2.13;1.30;;;;;;;;;;5037644;28;20030;-74
2021/07/06 01:51:45;;;;;;;1.50;1.40;;;;;;;;;;5036805;28;20021;-74
2021/07/06 01:54:11;;;;;;;1.40;1.27;;;;;;;;;;5050671;28;20055;-72
2021/07/06 01:56:42;;;;;;;1.98;1.70;;;;;;;;;;5054864;28;20099;-73
2021/07/06 01:59:08;;;;;;;3.95;1.40;;;;;;;;;;5055324;28;20420;-73
2021/07/06 02:01:34;;;;;;;6.00;1.40;;;;;;;;;;5059125;28;20021;-72
2021/07/06 02:04:00;;;;;;;8.65;1.55;;;;;;;;;;5059655;28;20036;-73
2021/07/06 02:06:25;;;;;;;6.30;1.63;;;;;;;;;;5059601;28;20381;-74
2021/07/06 02:08:50;;;;;;;1.92;1.38;;;;;;;;;;5050154;28;20112;-73
2021/07/06 02:11:16;;;;;;;3.95;1.70;;;;;;;;;;5039364;28;20029;-74
2021/07/06 02:13:41;;;;;;;2.00;1.27;;;;;;;;;;5035539;28;20466;-73
2021/07/06 02:16:06;;;;;;;2.28;1.70;;;;;;;;;;5036110;28;20017;-73
2021/07/06 02:18:32;;;;;;;2.47;1.58;;;;;;;;;;5036279;28;20029;-73
2021/07/06 02:20:59;;;;;;;2.40;1.27;;;;;;;;;;5035295;28;20031;-73
2021/07/06 02:23:26;;;;;;;3.58;1.63;;;;;;;;;;5036166;28;20398;-73
2021/07/06 02:25:52;;;;;;;5.85;1.60;;;;;;;;;;5035990;28;20033;-74
2021/07/06 02:28:18;;;;;;;1.30;1.20;;;;;;;;;;5036657;28;20030;-73
2021/07/06 02:30:44;;;;;;;1.55;1.45;;;;;;;;;;5036888;28;20094;-73
2021/07/06 02:33:09;;;;;;;1.60;1.50;;;;;;;;;;5037691;28;20021;-74
2021/07/06 02:35:34;;;;;;;1.38;1.27;;;;;;;;;;5036492;28;20048;-73
2021/07/06 02:38:01;;;;;;;2.65;1.30;;;;;;;;;;5054350;28;20032;-74
2021/07/06 02:40:27;;;;;;;3.28;1.30;;;;;;;;;;5055462;28;20385;-73
2021/07/06 02:42:53;;;;;;;3.38;1.50;;;;;;;;;;5056410;28;20058;-74
2021/07/06 02:45:19;;;;;;;6.80;1.58;;;;;;;;;;5043249;28;20470;-72
2021/07/06 02:47:47;;;;;;;2.40;1.35;;;;;;;;;;5036626;28;20032;-73
2021/07/06 02:50:14;;;;;;;4.90;1.30;;;;;;;;;;5040176;28;20389;-73
2021/07/06 02:52:40;;;;;;;1.98;1.30;;;;;;;;;;5052648;28;20033;-74
2021/07/06 02:55:07;;;;;;;6.30;1.60;;;;;;;;;;5037666;28;20025;-74
2021/07/06 02:57:39;;;;;;;1.95;1.33;;;;;;;;;;5037538;28;20025;-73
2021/07/06 03:00:21;;;;;;;1.50;1.33;;;;;;;;;;5037371;28;20025;-73
2021/07/06 03:02:48;;;;;;;2.60;1.50;;;;;;;;;;5037888;28;20030;-73
2021/07/06 03:05:16;;;;;;;5.75;1.50;;;;;;;;;;5051043;28;20087;-74
2021/07/06 03:07:42;;;;;;;3.15;1.48;;;;;;;;;;5056037;28;20029;-73
2021/07/06 03:10:10;;;;;;;3.28;1.30;;;;;;;;;;5052351;28;20482;-73
2021/07/06 03:12:37;;;;;;;1.50;1.10;;;;;;;;;;5035931;28;20041;-73
2021/07/06 03:15:05;;;;;;;5.53;1.40;;;;;;;;;;5035787;28;20025;-72
2021/07/06 03:17:30;;;;;;;1.60;1.25;;;;;;;;;;5036246;28;20474;-73
2021/07/06 03:19:56;;;;;;;6.15;1.60;;;;;;;;;;5055863;28;20101;-74
2021/07/06 03:22:21;;;;;;;1.83;1.10;;;;;;;;;;5054501;28;20035;-74
2021/07/06 03:24:46;;;;;;;2.47;1.33;;;;;;;;;;5035242;28;20040;-73
2021/07/06 03:27:12;;;;;;;3.97;1.20;;;;;;;;;;5034964;28;20079;-73
2021/07/06 03:29:37;;;;;;;5.10;1.50;;;;;;;;;;5043603;28;20029;-73
2021/07/06 03:32:03;;;;;;;3.60;1.20;;;;;;;;;;5048306;28;20044;-74
2021/07/06 03:34:28;;;;;;;3.60;1.40;;;;;;;;;;5036837;28;20029;-75
2021/07/06 03:36:53;;;;;;;2.45;1.42;;;;;;;;;;5038637;28;20028;-72
2021/07/06 03:39:19;;;;;;;4.78;1.40;;;;;;;;;;5038969;28;20021;-72
2021/07/06 03:41:44;;;;;;;4.47;1.30;;;;;;;;;;5040984;28;20363;-72
2021/07/06 03:44:09;;;;;;;2.90;1.40;;;;;;;;;;5039773;28;20022;-74
2021/07/06 03:46:35;;;;;;;1.50;1.02;;;;;;;;;;5050668;28;20084;-73
2021/07/06 03:49:02;;;;;;;3.03;1.17;;;;;;;;;;5059798;28;20106;-74
2021/07/06 03:51:27;;;;;;;0.93;0.80;;;;;;;;;;5059066;28;20473;-73
2021/07/06 03:53:53;;;;;;;2.78;0.90;;;;;;;;;;5059085;28;20032;-75
2021/07/06 03:56:18;;;;;;;1.45;0.93;;;;;;;;;;5056716;28;20031;-74
2021/07/06 03:58:43;;;;;;;2.80;0.90;;;;;;;;;;5041128;28;20034;-74
2021/07/06 04:01:09;;;;;;;2.85;1.08;;;;;;;;;;5053985;28;20043;-73
2021/07/06 04:03:34;;;;;;;3.65;1.02;;;;;;;;;;5057667;28;20039;-74
2021/07/06 04:05:59;;;;;;;2.17;1.23;;;;;;;;;;5057938;28;20052;-73
2021/07/06 04:08:25;;;;;;;1.85;1.15;;;;;;;;;;5053800;28;20033;-74
2021/07/06 04:10:50;;;;;;;2.55;1.20;;;;;;;;;;5057130;28;20035;-74
2021/07/06 04:13:15;;;;;;;5.07;1.45;;;;;;;;;;5055463;28;20033;-72
2021/07/06 04:15:41;;;;;;;3.40;1.10;;;;;;;;;;5037624;28;20021;-74
2021/07/06 04:18:06;;;;;;;7.35;1.48;;;;;;;;;;5038090;28;20111;-74
2021/07/06 04:20:33;;;;;;;7.70;1.60;;;;;;;;;;5043310;28;20037;-74
2021/07/06 04:22:58;;;;;;;5.47;1.30;;;;;;;;;;5046253;28;20067;-73
2021/07/06 04:25:23;;;;;;;9.00;1.70;;;;;;;;;;5036642;28;20439;-72
2021/07/06 04:27:51;;;;;;;3.35;1.30;;;;;;;;;;5037368;28;20033;-73
2021/07/06 04:30:17;;;;;;;8.38;1.67;;;;;;;;;;5054954;28;20079;-74
2021/07/06 04:32:43;;;;;;;12.52;1.30;;;;;;;;;;5054757;28;20078;-74
2021/07/06 04:35:09;;;;;;;7.75;1.45;;;;;;;;;;5057256;28;20017;-72
2021/07/06 04:37:35;;;;;;;1.13;0.95;;;;;;;;;;5055965;28;20045;-73
2021/07/06 04:40:02;;;;;;;6.25;1.60;;;;;;;;;;5057897;28;20080;-71
2021/07/06 04:42:28;;;;;;;2.75;1.20;;;;;;;;;;5055219;28;20051;-73
2021/07/06 04:44:53;;;;;;;2.33;0.93;;;;;;;;;;5059662;28;20025;-73
2021/07/06 04:47:18;;;;;;;3.67;1.20;;;;;;;;;;5055109;28;20028;-74
2021/07/06 04:49:44;;;;;;;2.58;1.13;;;;;;;;;;5047568;28;20068;-71
2021/07/06 04:52:09;;;;;;;3.95;1.25;;;;;;;;;;5040926;28;20057;-75
2021/07/06 04:54:34;;;;;;;3.95;1.20;;;;;;;;;;5038384;28;20017;-73
2021/07/06 04:57:00;;;;;;;10.75;1.88;;;;;;;;;;5038381;28;20028;-73
2021/07/06 04:59:25;;;;;;;2.55;1.33;;;;;;;;;;5039786;28;20524;-73
2021/07/06 05:01:50;;;;;;;4.97;0.98;;;;;;;;;;5046542;28;20033;-73
2021/07/06 05:04:16;;;;;;;6.07;1.20;;;;;;;;;;5037611;28;20109;-73
2021/07/06 05:06:42;;;;;;;2.67;1.60;;;;;;;;;;5036648;28;20033;-74
2021/07/06 05:09:07;;;;;;;4.05;1.05;;;;;;;;;;5038362;28;20053;-71
2021/07/06 05:11:33;;;;;;;6.88;1.50;;;;;;;;;;5040074;28;20030;-73
2021/07/06 05:13:58;;;;;;;8.75;1.25;;;;;;;;;;5039881;28;20021;-74
2021/07/06 05:16:23;;;;;;;7.18;1.08;;;;;;;;;;5039726;28;20044;-73
2021/07/06 05:18:49;;;;;;;7.40;1.30;;;;;;;;;;5038594;28;20036;-74
2021/07/06 05:21:16;;;;;;;5.60;1.50;;;;;;;;;;5037809;28;20468;-73
2021/07/06 05:23:41;;;;;;;4.30;1.02;;;;;;;;;;5056171;28;20040;-72
2021/07/06 05:26:07;;;;;;;2.13;0.90;;;;;;;;;;5058739;28;20477;-74
2021/07/06 05:28:32;;;;;;;3.03;0.70;;;;;;;;;;5056993;28;20070;-72
2021/07/06 05:30:57;;;;;;;3.97;1.00;;;;;;;;;;5054079;28;20441;-73
2021/07/06 05:33:23;;;;;;;5.20;1.10;;;;;;;;;;5052636;28;20033;-72
2021/07/06 05:35:48;;;;;;;1.45;0.73;;;;;;;;;;5045450;28;20462;-73
2021/07/06 05:38:14;;;;;;;1.70;0.70;;;;;;;;;;5034028;28;20080;-72
2021/07/06 05:40:40;;;;;;;2.45;0.85;;;;;;;;;;5034583;28;20021;-73
2021/07/06 05:43:09;;;;;;;2.97;0.93;;;;;;;;;;5034096;28;20029;-72
2021/07/06 05:45:35;;;;;;;1.35;0.60;;;;;;;;;;5045191;28;20025;-72
2021/07/06 05:48:01;;;;;;;0.98;0.75;;;;;;;;;;5033075;28;20032;-71
2021/07/06 05:50:27;;;;;;;4.88;0.90;;;;;;;;;;5034238;28;20389;-73
2021/07/06 05:52:52;;;;;;;4.10;0.80;;;;;;;;;;5033903;28;20044;-73
2021/07/06 05:55:17;;;;;;;2.85;0.90;;;;;;;;;;5034013;28;20076;-73
2021/07/06 05:57:43;;;;;;;7.40;1.02;;;;;;;;;;5034728;28;20075;-72
2021/07/06 06:00:11;;;;;;;2.90;0.63;;;;;;;;;;5051912;28;20040;-72
2021/07/06 06:02:37;;;;;;;3.72;1.05;;;;;;;;;;5054007;28;20024;-71
2021/07/06 06:05:03;;;;;;;6.05;1.05;;;;;;;;;;5053921;28;20025;-72
2021/07/06 06:07:29;;;;;;;2.20;0.73;;;;;;;;;;5052320;28;20469;-72
2021/07/06 06:09:54;;;;;;;1.95;0.95;;;;;;;;;;5038014;28;20033;-72
2021/07/06 06:12:20;;;;;;;1.10;1.00;;;;;;;;;;5033655;28;20128;-70
2021/07/06 06:14:45;;;;;;;2.22;0.85;;;;;;;;;;5034835;28;20381;-72
2021/07/06 06:17:10;;;;;;;1.92;0.93;;;;;;;;;;5033601;28;20048;-72
2021/07/06 06:19:36;;;;;;;3.72;1.05;;;;;;;;;;5034036;28;20162;-71
2021/07/06 06:22:02;;;;;;;5.32;1.02;;;;;;;;;;5034956;28;20064;-71
2021/07/06 06:24:27;;;;;;;0.95;0.80;;;;;;;;;;5042099;28;20052;-73
2021/07/06 06:26:52;;;;;;;1.77;0.70;;;;;;;;;;5053807;28;20032;-71
2021/07/06 06:29:18;;;;;;;2.17;0.98;;;;;;;;;;5053260;28;20025;-72
2021/07/06 06:31:44;;;;;;;10.32;0.90;;;;;;;;;;5040373;28;20036;-72
2021/07/06 06:34:11;;;;;;;3.72;0.90;;;;;;;;;;5032938;28;20052;-70
2021/07/06 06:36:36;;;;;;;4.43;1.15;;;;;;;;;;5033248;28;20033;-71
2021/07/06 06:39:02;;;;;;;3.28;1.23;;;;;;;;;;5033739;28;20091;-71
2021/07/06 06:41:28;;;;;;;2.75;1.05;;;;;;;;;;5033465;28;20029;-72
2021/07/06 06:43:54;;;;;;;3.83;0.85;;;;;;;;;;5033311;28;20444;-70
2021/07/06 06:46:20;;;;;;;2.42;0.88;;;;;;;;;;5032560;28;20033;-70
2021/07/06 06:48:46;;;;;;;2.67;1.10;;;;;;;;;;5045745;28;20116;-73
2021/07/06 06:51:12;;;;;;;3.53;1.40;;;;;;;;;;5033136;28;20521;-71
2021/07/06 06:53:37;;;;;;;2.42;0.90;;;;;;;;;;5033731;28;20021;-70
2021/07/06 06:56:03;;;;;;;6.20;1.10;;;;;;;;;;5044794;28;20033;-68
2021/07/06 06:58:28;;;;;;;1.67;0.80;;;;;;;;;;5033000;28;20018;-72
2021/07/06 07:00:53;;;;;;;3.42;1.08;;;;;;;;;;5033247;28;20037;-72
2021/07/06 07:03:19;;;;;;;4.82;1.30;;;;;;;;;;5034555;28;20052;-71
2021/07/06 07:05:44;;;;;;;8.00;0.90;;;;;;;;;;5050655;28;20029;-72
2021/07/06 07:08:09;;;;;;;3.53;1.00;;;;;;;;;;5052825;28;20071;-71
2021/07/06 07:10:35;;;;;;;5.18;1.35;;;;;;;;;;5056313;28;20016;-73
2021/07/06 07:13:00;;;;;;;2.85;1.00;;;;;;;;;;5056979;28;20025;-71
2021/07/06 07:15:26;;;;;;;5.20;1.30;;;;;;;;;;5056889;28;20021;-69
2021/07/06 07:17:51;;;;;;;1.38;0.80;;;;;;;;;;5050285;28;20028;-70
2021/07/06 07:20:16;;;;;;;3.30;0.70;;;;;;;;;;5048361;28;20045;-68
2021/07/06 07:22:43;;;;;;;2.17;0.80;;;;;;;;;;5036744;28;20101;-70
2021/07/06 07:25:09;;;;;;;5.63;0.82;;;;;;;;;;5036901;28;20072;-71
2021/07/06 07:27:35;;;;;;;3.65;0.80;;;;;;;;;;5036819;28;20035;-72
2021/07/06 07:30:00;;;;;;;1.98;1.05;;;;;;;;;;5036889;28;20025;-71
2021/07/06 07:32:26;;;;;;;6.07;0.93;;;;;;;;;;5048973;28;20046;-71
2021/07/06 07:34:51;;;;;;;7.45;0.60;;;;;;;;;;5055605;28;20033;-70
2021/07/06 07:37:18;;;;;;;6.05;1.55;;;;;;;;;;5053409;28;20025;-69
2021/07/06 07:39:44;;;;;;;2.72;0.55;;;;;;;;;;5056781;28;20078;-69
2021/07/06 07:42:10;;;;;;;5.28;0.85;;;;;;;;;;5056304;28;20431;-68
2021/07/06 07:44:35;;;;;;;2.15;0.63;;;;;;;;;;5038689;28;20030;-68
2021/07/06 07:47:01;;;;;;;1.88;0.75;;;;;;;;;;5036858;28;20052;-67
2021/07/06 07:49:26;;;;;;;2.53;0.60;;;;;;;;;;5036254;28;20116;-68
2021/07/06 07:51:51;;;;;;;3.03;0.70;;;;;;;;;;5036152;28;20044;-67
2021/07/06 07:54:17;;;;;;;5.53;0.60;;;;;;;;;;5037055;28;20029;-71
2021/07/06 07:56:42;;;;;;;3.63;0.32;;;;;;;;;;5037027;28;20033;-71
2021/07/06 07:59:08;;;;;;;11.77;0.98;;;;;;;;;;5036627;28;20057;-70
2021/07/06 08:01:34;;;;;;;2.15;0.40;;;;;;;;;;5042946;28;20037;-71
2021/07/06 08:03:59;;;;;;;0.50;0.40;;;;;;;;;;5056046;28;20095;-70
2021/07/06 08:06:24;;;;;;;3.33;0.40;;;;;;;;;;5053145;28;21623;-72
2021/07/06 08:08:50;;;;;;;0.90;0.30;;;;;;;;;;5036031;28;20021;-71
2021/07/06 08:11:15;;;;;;;0.77;0.38;;;;;;;;;;5036123;28;20033;-72
2021/07/06 08:13:41;;;;;;;3.40;0.50;;;;;;;;;;5036017;28;20470;-72
2021/07/06 08:16:06;;;;;;;0.43;0.30;;;;;;;;;;5036831;28;20025;-70
2021/07/06 08:18:32;;;;;;;5.65;1.10;;;;;;;;;;5035623;28;20036;-71
2021/07/06 08:20:58;;;;;;;3.90;0.43;;;;;;;;;;5034595;28;20030;-69
2021/07/06 08:23:24;;;;;;;0.93;0.30;;;;;;;;;;5036832;28;20025;-72
2021/07/06 08:25:49;;;;;;;0.52;0.32;;;;;;;;;;5035760;28;20033;-72
2021/07/06 08:28:14;;;;;;;1.20;0.50;;;;;;;;;;5035384;28;20052;-70
2021/07/06 08:30:40;;;;;;;3.53;0.50;;;;;;;;;;5035140;28;20515;-72
2021/07/06 08:33:06;;;;;;;0.60;0.40;;;;;;;;;;5035841;28;20044;-70
2021/07/06 08:35:32;;;;;;;2.60;0.40;;;;;;;;;;5035562;28;20030;-69
2021/07/06 08:37:57;;;;;;;4.80;0.50;;;;;;;;;;5035212;28;20418;-71
2021/07/06 08:40:22;;;;;;;0.75;0.50;;;;;;;;;;5049102;28;20065;-71
2021/07/06 08:42:48;;;;;;;1.00;0.32;;;;;;;;;;5055225;28;20032;-71
2021/07/06 08:45:14;;;;;;;0.68;0.30;;;;;;;;;;5036876;28;20025;-72
2021/07/06 08:47:44;;;;;;;0.70;0.70;;;;;;;;;;5035262;28;20052;-71
2021/07/06 08:50:10;;;;;;;2.47;0.43;;;;;;;;;;5035205;28;20474;-71
2021/07/06 08:52:38;;;;;;;5.13;0.57;;;;;;;;;;5044008;28;20094;-70
2021/07/06 08:55:04;;;;;;;4.68;0.85;;;;;;;;;;5053166;28;20052;-70
2021/07/06 08:57:29;;;;;;;1.90;0.45;;;;;;;;;;5052574;28;20033;-69
2021/07/06 08:59:54;;;;;;;2.53;0.45;;;;;;;;;;5054787;28;20443;-69
2021/07/06 09:02:22;;;;;;;2.53;0.43;;;;;;;;;;5054898;28;20029;-70
2021/07/06 09:04:52;;;;;;;3.03;0.40;;;;;;;;;;5052948;28;20025;-70
2021/07/06 09:07:20;;;;;;;1.15;0.50;;;;;;;;;;5055311;28;20177;-70
2021/07/06 09:09:46;;;;;;;4.75;0.50;;;;;;;;;;5053025;28;20104;-69
2021/07/06 09:12:12;;;;;;;1.45;0.60;;;;;;;;;;5053663;28;20056;-70
2021/07/06 09:14:41;;;;;;;6.38;0.80;;;;;;;;;;5054940;28;20021;-70
2021/07/06 09:17:14;;;;;;;1.08;0.40;;;;;;;;;;5047972;28;20037;-70
2021/07/06 09:19:41;;;;;;;1.63;0.60;;;;;;;;;;5035083;28;20377;-71
2021/07/06 09:22:21;;;;;;;0.90;0.50;;;;;;;;;;5034602;28;20029;-71
2021/07/06 09:24:59;;;;;;;3.60;0.43;;;;;;;;;;5052735;28;20021;-70
2021/07/06 09:27:30;;;;;;;0.80;0.55;;;;;;;;;;5043951;28;20030;-70
2021/07/06 09:30:07;;;;;;;1.42;0.47;;;;;;;;;;5034326;28;20067;-69
2021/07/06 09:32:37;;;;;;;7.13;0.80;;;;;;;;;;5047396;28;20129;-70
2021/07/06 09:35:07;;;;;;;1.95;0.68;;;;;;;;;;5054659;28;20077;-71
2021/07/06 09:37:54;;;;;;;3.17;0.57;;;;;;;;;;5053998;28;20021;-70
2021/07/06 09:40:25;;;;;;;0.88;0.80;;;;;;;;;;5035309;28;20124;-70
2021/07/06 09:43:15;;;;;;;0.82;0.50;;;;;;;;;;5034375;28;20029;-71
2021/07/06 09:45:58;;;;;;;1.75;0.60;;;;;;;;;;5041238;28;20108;-70
2021/07/06 09:48:24;;;;;;;4.80;0.50;;;;;;;;;;5040275;28;20063;-71
2021/07/06 09:50:49;;;;;;;2.28;0.70;;;;;;;;;;5033498;28;20061;-70
2021/07/06 09:53:26;;;;;;;2.60;0.52;;;;;;;;;;5034121;28;20500;-70
2021/07/06 09:55:51;;;;;;;8.82;1.00;;;;;;;;;;5034126;28;20382;-71
2021/07/06 09:58:16;;;;;;;2.70;0.80;;;;;;;;;;5033999;28;20030;-70
2021/07/06 10:00:42;;;;;;;1.55;0.73;;;;;;;;;;5034090;28;20024;-71
2021/07/06 10:03:07;;;;;;;1.63;0.70;;;;;;;;;;5034882;28;20036;-70
2021/07/06 10:05:33;;;;;;;2.72;0.77;;;;;;;;;;5042902;28;20032;-69
2021/07/06 10:07:59;;;;;;;1.90;0.90;;;;;;;;;;5043544;28;20036;-71
2021/07/06 10:10:25;;;;;;;7.47;0.80;;;;;;;;;;5033757;28;20029;-71
2021/07/06 10:12:51;;;;;;;3.92;0.70;;;;;;;;;;5034749;28;20100;-71
2021/07/06 10:15:18;;;;;;;2.15;0.60;;;;;;;;;;5033629;28;20496;-70
2021/07/06 10:17:44;;;;;;;1.33;0.88;;;;;;;;;;5034504;28;20090;-71
2021/07/06 10:20:15;;;;;;;0.68;0.68;;;;;;;;;;5040239;28;20032;-71
2021/07/06 10:22:41;;;;;;;1.27;0.82;;;;;;;;;;5053748;28;20031;-71
2021/07/06 10:25:09;;;;;;;0.98;0.77;;;;;;;;;;5049676;28;20032;-71
2021/07/06 10:27:37;;;;;;;4.18;1.02;;;;;;;;;;5053569;28;20449;-71
2021/07/06 10:30:20;;;;;;;1.27;0.70;;;;;;;;;;5053552;28;20032;-70
2021/07/06 10:32:52;;;;;;;1.77;0.77;;;;;;;;;;5033300;28;20071;-67
2021/07/06 10:35:37;;;;;;;2.95;1.05;;;;;;;;;;5033163;28;20028;-71
2021/07/06 10:38:48;;;;;;;2.13;1.30;;;;;;;;;;5033109;28;20033;-71
2021/07/06 10:41:13;;;;;;;5.05;1.10;;;;;;;;;;5033304;28;20029;-71
2021/07/06 10:43:42;;;;;;;2.40;0.98;;;;;;;;;;5036541;28;20079;-70
2021/07/06 10:46:19;;;;;;;2.28;0.85;;;;;;;;;;5041396;28;20043;-70
2021/07/06 10:48:47;;;;;;;2.40;0.90;;;;;;;;;;5053159;28;20032;-71
2021/07/06 10:51:34;;;;;;;5.55;1.05;;;;;;;;;;5053084;28;20088;-71
2021/07/06 10:54:26;;;;;;;1.30;0.73;;;;;;;;;;5053585;28;20075;-71
2021/07/06 10:56:54;;;;;;;1.80;1.00;;;;;;;;;;5053607;28;20028;-70
2021/07/06 10:59:25;;;;;;;1.73;0.70;;;;;;;;;;5042100;28;20048;-70
2021/07/06 11:01:52;;;;;;;1.58;0.90;;;;;;;;;;5040753;28;20104;-70
2021/07/06 11:04:49;;;;;;;2.72;0.93;;;;;;;;;;5033162;28;20117;-68
2021/07/06 11:07:23;;;;;;;2.35;1.05;;;;;;;;;;5029763;28;20039;-71
2021/07/06 11:09:49;;;;;;;1.83;0.90;;;;;;;;;;5032918;28;20026;-69
2021/07/06 11:12:36;;;;;;;1.95;0.70;;;;;;;;;;5033150;28;20112;-69
2021/07/06 11:15:11;;;;;;;1.13;0.85;;;;;;;;;;5050433;28;20134;-70
2021/07/06 11:17:48;;;;;;;1.33;0.75;;;;;;;;;;5052555;28;20033;-72
2021/07/06 11:20:28;;;;;;;2.55;1.02;;;;;;;;;;5054174;28;20036;-71
2021/07/06 11:22:55;;;;;;;1.38;0.60;;;;;;;;;;5035561;28;20025;-71
2021/07/06 11:25:26;;;;;;;3.97;0.82;;;;;;;;;;5034561;28;20493;-70
2021/07/06 11:28:12;;;;;;;1.63;0.77;;;;;;;;;;5050326;28;20037;-73
2021/07/06 11:30:50;;;;;;;2.83;0.75;;;;;;;;;;5054020;28;20480;-71
2021/07/06 11:33:19;;;;;;;5.40;0.82;;;;;;;;;;5046111;28;20143;-69
2021/07/06 11:35:50;;;;;;;4.13;0.70;;;;;;;;;;5047280;28;20029;-70
2021/07/06 11:38:36;;;;;;;1.88;0.60;;;;;;;;;;5039010;28;20021;-74
2021/07/06 11:41:03;;;;;;;3.05;0.50;;;;;;;;;;5053667;28;20099;-68
2021/07/06 11:43:30;;;;;;;4.50;0.68;;;;;;;;;;5052633;28;20044;-71
2021/07/06 11:46:00;;;;;;;3.35;0.70;;;;;;;;;;5051769;28;20025;-70
2021/07/06 11:48:30;;;;;;;5.03;0.80;;;;;;;;;;5054266;28;20051;-68
2021/07/06 11:50:59;;;;;;;2.70;1.00;;;;;;;;;;5038197;28;20072;-69
2021/07/06 11:53:26;;;;;;;3.10;0.93;;;;;;;;;;5038597;28;20035;-70
2021/07/06 11:55:53;;;;;;;3.72;0.70;;;;;;;;;;5056006;28;20577;-70
2021/07/06 11:58:24;;;;;;;6.95;0.60;;;;;;;;;;5044093;28;20065;-69
2021/07/06 12:00:51;;;;;;;4.63;0.77;;;;;;;;;;5036799;28;20032;-69
2021/07/06 12:03:25;;;;;;;4.75;0.52;;;;;;;;;;5037619;28;20029;-68
2021/07/06 12:06:01;;;;;;;2.45;0.68;;;;;;;;;;5038052;28;20021;-72
2021/07/06 12:08:32;;;;;;;4.30;0.68;;;;;;;;;;5037676;28;20029;-70
2021/07/06 12:11:01;;;;;;;5.20;0.82;;;;;;;;;;5047601;28;20477;-68
2021/07/06 12:13:30;;;;;;;15.35;1.77;;;;;;;;;;5056738;28;20111;-73
2021/07/06 12:16:00;;;;;;;4.93;0.50;;;;;;;;;;5056908;28;20468;-70
2021/07/06 12:18:26;;;;;;;2.78;0.65;;;;;;;;;;5049025;28;20057;-72
2021/07/06 12:20:53;;;;;;;2.15;0.85;;;;;;;;;;5038085;28;20022;-73
2021/07/06 12:23:20;;;;;;;3.45;1.00;;;;;;;;;;5037833;28;20025;-69
2021/07/06 12:25:45;;;;;;;3.35;0.70;;;;;;;;;;5036868;28;20032;-68
2021/07/06 12:28:11;;;;;;;1.27;0.50;;;;;;;;;;5036458;28;20029;-71
2021/07/06 12:30:36;;;;;;;2.22;0.95;;;;;;;;;;5052492;28;20059;-68
2021/07/06 12:33:06;;;;;;;4.55;0.80;;;;;;;;;;5056404;28;20046;-71
2021/07/06 12:35:32;;;;;;;7.68;0.73;;;;;;;;;;5056268;28;20035;-71
2021/07/06 12:38:02;;;;;;;4.53;0.55;;;;;;;;;;5058316;28;20444;-71
2021/07/06 12:40:29;;;;;;;3.20;0.50;;;;;;;;;;5059204;28;20083;-70
2021/07/06 12:42:54;;;;;;;4.22;0.70;;;;;;;;;;5057357;28;20477;-71
2021/07/06 12:45:19;;;;;;;4.55;0.70;;;;;;;;;;5056515;28;20055;-70
2021/07/06 12:47:45;;;;;;;1.42;0.63;;;;;;;;;;5058140;28;20021;-72
2021/07/06 12:50:18;;;;;;;3.13;0.60;;;;;;;;;;5043622;28;20033;-69
2021/07/06 12:52:54;;;;;;;3.97;0.70;;;;;;;;;;5049477;28;20439;-73
2021/07/06 12:55:24;;;;;;;6.43;0.73;;;;;;;;;;5057294;28;20032;-71
2021/07/06 12:58:11;;;;;;;6.63;0.75;;;;;;;;;;5048393;28;20053;-71
2021/07/06 13:00:38;;;;;;;3.20;0.52;;;;;;;;;;5039256;28;20026;-67
2021/07/06 13:03:12;;;;;;;6.82;0.73;;;;;;;;;;5036401;28;20167;-71
2021/07/06 13:05:45;;;;;;;1.38;0.50;;;;;;;;;;5037389;28;20040;-70
2021/07/06 13:08:21;;;;;;;5.38;0.63;;;;;;;;;;5036359;28;20030;-71
2021/07/06 13:10:47;;;;;;;1.60;0.40;;;;;;;;;;5037906;28;20053;-70
2021/07/06 13:13:14;;;;;;;2.17;0.52;;;;;;;;;;5036572;28;20029;-71
2021/07/06 13:15:47;;;;;;;5.22;0.52;;;;;;;;;;5037130;28;20470;-67
2021/07/06 13:18:20;;;;;;;1.50;0.43;;;;;;;;;;5048701;28;20033;-71
2021/07/06 13:20:49;;;;;;;2.15;0.50;;;;;;;;;;5056257;28;20078;-70
2021/07/06 13:23:15;;;;;;;4.82;0.60;;;;;;;;;;5056519;28;20056;-69
2021/07/06 13:25:41;;;;;;;2.17;0.40;;;;;;;;;;5056618;28;20083;-70
2021/07/06 13:28:07;;;;;;;3.05;0.40;;;;;;;;;;5057071;28;20079;-71
2021/07/06 13:30:37;;;;;;;0.50;0.38;;;;;;;;;;5049382;28;20099;-69
2021/07/06 13:33:05;;;;;;;4.00;0.50;;;;;;;;;;5035392;28;20029;-70
2021/07/06 13:35:32;;;;;;;2.72;0.50;;;;;;;;;;5033018;28;20454;-69
2021/07/06 13:37:57;;;;;;;9.95;0.68;;;;;;;;;;5034297;28;20040;-69
2021/07/06 13:40:24;;;;;;;3.58;0.70;;;;;;;;;;5052296;28;20439;-69
2021/07/06 13:42:50;;;;;;;2.70;0.60;;;;;;;;;;5054294;28;20033;-68
2021/07/06 13:45:17;;;;;;;2.88;0.73;;;;;;;;;;5048679;28;20043;-67
2021/07/06 13:47:43;;;;;;;3.38;0.63;;;;;;;;;;5032671;28;20049;-66
2021/07/06 13:50:14;;;;;;;4.47;0.90;;;;;;;;;;5042778;28;20477;-67
2021/07/06 13:52:39;;;;;;;7.93;0.82;;;;;;;;;;5054392;28;20078;-67
2021/07/06 13:55:05;;;;;;;3.00;0.57;;;;;;;;;;5054136;28;20376;-70
2021/07/06 13:57:32;;;;;;;2.78;0.70;;;;;;;;;;5053725;28;20025;-69
2021/07/06 13:59:58;;;;;;;3.80;0.70;;;;;;;;;;5052486;28;20025;-68
2021/07/06 14:02:23;;;;;;;2.47;0.70;;;;;;;;;;5039340;28;20132;-70
2021/07/06 14:04:49;;;;;;;9.93;1.00;;;;;;;;;;5046360;28;20058;-67
2021/07/06 14:07:17;;;;;;;3.15;0.50;;;;;;;;;;5051149;28;20029;-71
2021/07/06 14:09:43;;;;;;;4.25;0.70;;;;;;;;;;5033617;28;20029;-71
2021/07/06 14:12:10;;;;;;;9.18;0.70;;;;;;;;;;5033685;28;20029;-70
2021/07/06 14:14:35;;;;;;;9.00;0.70;;;;;;;;;;5042339;28;20104;-69
2021/07/06 14:17:00;;;;;;;2.13;0.52;;;;;;;;;;5036656;28;20041;-69
2021/07/06 14:19:26;;;;;;;7.63;0.75;;;;;;;;;;5032761;28;20481;-69
2021/07/06 14:21:51;;;;;;;3.95;0.68;;;;;;;;;;5033778;28;20032;-69
2021/07/06 14:24:17;;;;;;;2.63;0.50;;;;;;;;;;5033326;28;20059;-70
2021/07/06 14:26:42;;;;;;;6.22;0.57;;;;;;;;;;5033618;28;20056;-69
2021/07/06 14:29:08;;;;;;;3.25;0.80;;;;;;;;;;5046848;28;20050;-69
2021/07/06 14:31:33;;;;;;;8.35;0.80;;;;;;;;;;5049171;28;20032;-68
2021/07/06 14:33:59;;;;;;;4.05;0.75;;;;;;;;;;5033298;28;20061;-69
2021/07/06 14:36:24;;;;;;;12.55;0.60;;;;;;;;;;5048893;28;20503;-69
2021/07/06 14:38:50;;;;;;;2.45;0.57;;;;;;;;;;5052939;28;20500;-69
2021/07/06 14:41:16;;;;;;;2.28;0.90;;;;;;;;;;5053319;28;20031;-69
2021/07/06 14:43:43;;;;;;;1.70;0.70;;;;;;;;;;5049814;28;20123;-69
2021/07/06 14:46:09;;;;;;;8.43;0.70;;;;;;;;;;5035329;28;20075;-67